Date,TemperatureHighF,TemperatureAvgF,TemperatureLowF,DewpointHighF,DewpointAvgF,DewpointLowF,HumidityHigh,HumidityAvg,HumidityLow,PressureMaxIn,PressureMinIn,WindSpeedMaxMPH,WindSpeedAvgMPH,GustSpeedMaxMPH,PrecipitationSumIn
2013-1-1,37.4,30.1,11.1,11.5,0.2,-12.1,39,27,21,0.00,0.00,13,2,13,0.00
2013-1-2,33.3,18.4,1.4,0.3,-8.6,-20.4,42,30,20,0.00,0.00,18,3,18,0.00
2013-1-3,22.3,11.2,-1.8,-2.1,-15.9,-27.6,40,28,22,0.00,0.00,9,2,9,0.00
2013-1-4,38.1,31.4,18.5,9.9,3.2,-4.1,52,30,21,0.00,0.00,20,5,20,0.00
2013-1-5,39.9,30.3,19.0,9.6,3.6,-2.8,59,34,21,0.00,0.00,18,3,18,0.00
2013-1-6,44.1,33.1,22.1,18.7,10.0,4.5,69,40,20,0.00,0.00,13,3,13,0.00
2013-1-7,37.0,29.7,17.1,20.5,8.4,0.7,63,42,22,0.00,0.00,17,2,17,0.00
2013-1-8,47.1,32.3,16.9,16.8,9.6,4.1,67,41,19,0.00,0.00,15,3,15,0.00
2013-1-9,45.5,31.9,16.2,23.0,13.7,4.8,76,50,20,0.00,0.00,20,3,20,0.00
2013-1-10,45.1,39.6,30.0,10.5,4.9,1.0,41,24,20,0.00,0.00,29,5,29,0.00
2013-1-11,37.0,31.6,22.3,32.3,16.9,6.9,85,57,30,0.00,0.00,10,1,10,0.12
2013-1-12,44.6,39.7,35.1,41.8,36.3,31.0,93,88,77,0.00,0.00,10,1,10,0.00
2013-1-13,45.1,42.6,38.5,44.2,41.5,37.1,98,96,93,0.00,0.00,12,2,12,0.00
2013-1-14,52.0,43.8,34.7,51.0,28.0,6.4,98,61,25,0.00,0.00,17,2,17,0.04
2013-1-15,36.9,33.6,28.4,11.6,5.3,1.1,44,30,22,0.00,0.00,11,2,11,0.00
2013-1-16,32.7,30.6,27.9,27.7,20.9,4.1,82,69,30,0.00,0.00,6,0,6,0.00
2013-1-17,39.6,30.5,23.9,30.2,13.8,-7.6,84,55,24,0.00,0.00,15,2,15,0.24
2013-1-18,26.2,21.6,17.4,-7.6,-10.4,-14.0,28,23,21,0.00,0.00,15,4,15,0.00
2013-1-19,45.9,34.4,23.7,13.6,2.3,-9.4,51,26,20,0.00,0.00,17,4,17,0.00
2013-1-20,49.6,39.0,26.1,10.2,3.5,-8.5,31,22,16,0.00,0.00,24,7,24,0.00
2013-1-21,27.3,23.0,16.0,10.9,-2.8,-11.4,63,34,21,0.00,0.00,15,2,15,0.00
2013-1-22,20.7,16.4,9.7,10.8,-11.3,-19.9,65,30,22,0.00,0.00,22,6,22,0.00
2013-1-23,16.0,9.0,0.7,-14.6,-20.4,-27.6,24,24,23,0.00,0.00,17,4,17,0.00
2013-1-24,20.8,9.2,-1.8,-12.0,-20.5,-29.8,24,24,22,0.00,0.00,21,4,21,0.00
2013-1-25,19.6,13.9,7.3,-1.6,-14.5,-21.9,46,27,22,0.00,0.00,8,2,8,0.00
2013-1-26,25.2,15.4,8.8,-3.1,-9.5,-17.4,46,33,21,0.00,0.00,17,3,17,0.00
2013-1-27,32.5,17.3,2.5,2.7,-12.8,-23.9,54,25,20,0.00,0.00,13,1,13,0.00
2013-1-28,34.0,25.4,12.6,27.2,10.3,-11.7,77,55,22,0.00,0.00,10,2,10,0.00
2013-1-29,45.5,37.0,32.7,33.0,27.7,19.4,87,71,39,0.00,0.00,13,2,13,0.04
2013-1-30,58.8,48.1,36.7,53.3,44.2,32.6,96,87,65,0.00,0.00,13,3,13,0.24
2013-1-31,58.8,43.0,27.0,55.1,17.1,-6.5,91,42,18,0.00,0.00,28,8,28,0.94
2013-2-1,29.1,25.5,20.8,7.8,-6.3,-12.0,52,24,20,0.00,0.00,20,6,20,0.00
2013-2-5,26.2,26.2,26.1,13.9,13.3,12.9,59,58,57,0.00,0.00,4,1,4,0.00
2013-2-6,37.2,29.0,21.9,20.1,5.0,-11.1,75,41,19,0.00,0.00,15,4,15,0.00
2013-2-7,32.7,23.1,12.7,-2.6,-9.0,-15.3,39,24,20,0.00,0.00,10,2,10,0.00
2013-2-8,31.3,27.9,24.8,21.8,11.0,-6.6,76,52,23,0.00,0.00,12,1,12,0.00
2013-2-9,27.5,22.3,13.8,18.3,0.4,-16.3,77,43,21,0.00,0.00,28,5,28,0.00
2013-2-10,33.1,15.9,-0.4,-3.6,-14.2,-28.5,34,25,20,0.00,0.00,9,2,9,0.00
2013-2-11,42.3,34.4,14.7,37.6,23.4,-10.5,87,68,21,0.00,0.00,11,3,11,0.16
2013-2-12,42.1,37.8,33.8,33.0,9.8,2.7,87,34,21,0.00,0.00,18,5,18,0.00
2013-2-13,43.7,34.6,24.1,11.3,5.1,-1.0,53,30,18,0.00,0.00,8,1,8,0.00
2013-2-14,44.6,34.5,24.6,10.9,4.8,0.1,43,29,20,0.00,0.00,10,2,10,0.00
2013-2-15,53.2,41.3,33.1,13.6,7.7,1.2,42,25,18,0.00,0.00,13,3,13,0.00
2013-2-16,36.3,30.2,25.3,21.0,3.4,-9.1,63,34,20,0.00,0.00,14,3,14,0.00
2013-2-17,28.0,21.5,15.1,-6.8,-11.3,-15.3,24,22,21,0.00,0.00,28,7,28,0.00
2013-2-18,34.3,21.6,11.5,-2.3,-10.2,-18.5,39,24,20,0.00,0.00,17,4,17,0.00
2013-2-19,42.8,33.9,25.0,31.7,9.8,-9.4,82,42,20,0.00,0.00,17,4,17,0.20
2013-2-20,36.5,28.3,23.0,28.3,-1.4,-9.7,73,29,20,0.00,0.00,28,8,28,0.00
2013-2-21,30.0,24.5,20.8,-1.5,-6.0,-9.4,34,26,20,0.00,0.00,22,4,22,0.00
2013-2-22,36.7,29.0,21.2,10.4,3.3,-1.6,43,34,22,0.00,0.00,17,2,17,0.00
2013-2-23,38.3,35.1,32.2,32.4,22.5,10.2,79,61,39,0.00,0.00,10,2,10,0.00
2013-2-24,41.0,35.5,31.3,34.0,21.2,4.5,88,61,27,0.00,0.00,12,2,12,0.12
2013-2-25,43.3,34.6,24.4,22.8,8.7,2.7,67,35,20,0.00,0.00,14,2,14,0.00
2013-2-26,44.6,36.0,26.6,24.0,10.3,3.0,67,37,20,0.00,0.00,15,4,15,0.00
2013-2-27,46.0,39.4,32.9,37.1,27.1,12.5,87,63,39,0.00,0.00,23,3,23,0.67
2013-2-28,44.2,38.2,34.3,40.7,28.3,19.8,89,70,40,0.00,0.00,9,1,9,0.04
2013-3-1,42.6,37.0,33.3,24.4,12.9,4.5,63,38,21,0.00,0.00,15,3,15,0.00
2013-3-2,36.1,32.1,26.4,9.8,6.1,2.3,45,33,24,0.00,0.00,15,3,15,0.00
2013-3-3,32.0,28.0,24.4,10.9,1.3,-4.9,44,31,23,0.00,0.00,14,4,14,0.00
2013-3-4,38.5,30.8,26.1,5.9,1.6,-1.8,40,29,21,0.00,0.00,19,4,19,0.00
2013-3-5,42.8,34.7,29.1,10.7,5.4,1.0,39,29,20,0.00,0.00,17,4,17,0.00
2013-3-6,44.6,35.9,30.9,20.2,11.4,5.7,52,37,25,0.00,0.00,24,4,24,0.00
2013-3-7,36.1,33.8,30.7,26.4,15.2,6.3,78,50,30,0.00,0.00,17,3,17,0.00
2013-3-8,38.5,32.9,29.5,28.8,20.5,7.1,86,65,29,0.00,0.00,23,6,23,0.08
2013-3-9,51.1,38.2,28.4,11.6,5.5,-0.7,48,26,16,0.00,0.00,17,4,17,0.00
2013-3-10,54.1,38.8,19.9,17.2,10.8,4.5,73,36,18,0.00,0.00,14,3,14,0.00
2013-3-11,52.3,43.7,34.9,32.1,22.0,15.4,64,44,23,0.00,0.00,13,4,13,0.00
2013-3-12,55.2,50.2,39.9,50.1,39.7,21.8,84,68,48,0.00,0.00,12,1,13,1.02
2013-3-13,47.1,39.2,32.2,22.3,10.4,1.8,50,32,17,0.00,0.00,15,2,15,0.00
2013-3-14,32.7,29.0,24.8,15.0,-4.8,-9.4,50,23,20,0.00,0.00,20,7,20,0.00
2013-3-15,39.4,32.1,20.5,15.3,0.3,-9.7,42,26,18,0.00,0.00,19,5,19,0.00
2013-3-16,37.2,32.0,26.1,15.1,1.9,-6.8,51,29,19,0.00,0.00,17,3,17,0.00
2013-3-17,36.5,29.2,21.2,8.0,-3.8,-9.4,41,24,19,0.00,0.00,18,3,18,0.00
2013-3-18,36.3,27.5,14.7,18.0,-2.5,-14.8,65,29,19,0.00,0.00,14,2,14,0.00
2013-3-19,37.9,32.6,27.9,31.1,25.0,17.3,80,73,63,0.00,0.00,10,1,10,0.08
2013-3-20,40.3,30.6,22.5,19.5,6.0,-3.0,65,38,18,0.00,0.00,18,3,18,0.08
2013-3-21,38.1,28.1,18.7,14.6,2.0,-8.7,69,38,19,0.00,0.00,16,2,16,0.04
2013-3-22,36.9,26.7,17.2,6.3,1.1,-8.5,56,35,19,0.00,0.00,15,3,15,0.00
2013-3-26,45.1,45.1,45.1,6.5,6.5,6.5,20,20,20,0.00,40.00,9,9,9,0.00
2013-3-28,35.4,35.4,35.4,13.5,13.5,13.5,40,40,40,0.00,40.00,0,0,0,0.00
2013-3-29,50.9,44.3,30.0,16.0,8.4,5.3,55,24,19,0.00,0.00,11,4,11,0.00
2013-3-30,56.3,41.4,26.6,24.8,12.5,-0.7,75,36,16,0.00,0.00,13,3,13,0.00
2013-3-31,58.1,41.1,24.1,34.6,14.8,4.7,70,38,17,0.00,0.00,23,3,23,0.12
2013-4-1,59.0,43.3,31.5,41.4,20.3,-3.8,86,48,17,0.00,0.00,23,4,23,0.00
2013-4-2,39.2,33.3,27.0,3.8,-2.5,-7.2,34,21,19,0.00,0.00,24,8,24,0.00
2013-4-3,43.0,34.5,28.6,2.2,-2.5,-6.0,30,20,18,0.00,0.00,20,6,20,0.00
2013-4-4,55.2,40.2,23.2,12.5,3.4,-7.6,38,22,16,0.00,0.00,13,3,13,0.00
2013-4-5,58.1,45.7,37.4,13.5,5.8,-0.7,21,19,16,0.00,0.00,23,5,23,0.00
2013-4-6,49.6,37.1,28.4,9.1,-0.5,-6.2,32,20,16,0.00,0.00,18,5,18,0.00
2013-4-7,58.8,46.0,28.2,25.5,11.5,-1.5,40,25,17,0.00,0.00,22,5,22,0.00
2013-4-8,50.4,45.8,41.7,32.8,22.9,14.0,63,41,24,0.00,0.00,15,2,15,0.00
2013-4-20,61.9,47.0,38.1,55.3,25.7,-0.7,79,49,17,0.00,0.00,22,4,22,0.39
2013-4-21,50.5,40.0,31.3,9.7,3.3,-2.4,31,22,16,0.00,0.00,21,4,21,0.39
2013-4-22,52.9,38.4,30.4,15.9,9.4,3.8,49,31,18,0.00,0.00,15,2,15,0.00
2013-4-23,52.3,41.1,28.9,26.2,17.6,11.4,64,40,27,0.00,0.00,10,1,10,0.39
2013-4-24,75.6,54.3,32.9,39.6,25.3,16.2,83,40,13,0.00,0.00,17,3,17,0.39
2013-4-25,61.2,51.5,37.8,44.7,15.2,6.4,65,25,16,0.00,0.00,17,4,17,0.39
2013-4-26,60.3,47.4,31.3,24.5,14.1,5.3,64,29,17,0.00,0.00,16,3,16,0.39
2013-4-27,67.6,45.7,30.7,24.6,12.8,4.5,60,29,15,0.00,0.00,13,2,13,0.00
2013-4-28,73.9,56.1,35.2,28.3,19.0,11.3,67,28,13,0.00,0.00,15,3,15,0.00
2013-4-29,58.5,54.5,50.2,45.7,26.1,10.0,75,36,18,0.00,0.00,10,2,10,0.00
2013-4-30,71.4,59.2,48.6,37.7,20.7,8.3,62,25,14,0.00,0.00,13,2,13,0.00
2013-5-1,75.2,57.8,35.8,22.2,17.7,7.4,53,23,13,0.00,0.00,11,2,11,0.00
2013-5-2,78.6,61.5,39.7,38.8,23.7,15.8,80,30,13,0.00,0.00,17,2,17,0.00
2013-5-3,70.2,59.4,44.2,24.3,16.2,7.7,38,19,14,0.00,0.00,15,4,15,0.00
2013-5-4,75.7,57.8,39.0,42.6,25.1,15.7,83,36,13,0.00,0.00,15,3,15,0.00
2013-5-5,73.6,56.0,36.9,37.3,22.4,12.2,82,33,13,0.00,0.00,10,2,10,0.00
2013-5-6,73.9,57.3,37.9,39.8,25.7,16.2,83,36,13,0.00,0.00,9,2,9,0.00
2013-5-7,78.6,63.2,44.8,53.7,32.0,19.6,87,40,13,0.00,0.00,10,2,10,0.00
2013-5-8,68.4,61.8,54.5,54.6,46.3,37.8,81,58,34,0.00,0.00,15,2,15,0.16
2013-5-9,64.4,57.2,47.8,54.3,46.7,38.0,91,70,39,0.00,0.00,6,1,6,0.12
2013-5-10,78.8,63.8,46.8,59.0,37.6,20.5,92,49,13,0.00,0.00,10,2,10,0.00
2013-5-11,70.3,64.2,57.9,59.5,52.6,36.0,82,67,35,0.00,0.00,10,2,10,0.43
2013-5-12,64.8,55.1,39.6,38.4,25.5,6.4,57,33,16,0.00,0.00,19,2,19,0.00
2013-5-13,52.7,44.1,33.8,36.3,15.1,6.0,76,36,18,0.00,0.00,13,2,13,0.00
2013-5-14,60.1,45.3,30.6,31.5,17.9,7.3,83,41,17,0.00,0.00,12,2,12,0.00
2013-5-15,68.2,51.0,31.3,39.9,26.8,11.1,81,44,17,0.00,0.00,19,2,19,0.04
2013-5-16,81.5,66.0,46.4,52.4,29.5,14.9,89,37,12,0.00,0.00,18,4,18,0.00
2013-5-17,69.6,58.9,45.5,34.6,19.4,12.9,58,23,15,0.00,0.00,17,3,17,0.00
2013-5-18,70.7,57.3,41.0,41.5,28.0,16.8,80,39,14,0.00,0.00,12,1,12,0.00
2013-5-19,58.6,56.5,51.6,52.3,47.3,35.8,81,71,51,0.00,0.00,8,1,8,0.08
2013-5-20,82.6,67.7,57.2,57.6,46.7,34.4,88,54,19,0.00,0.00,8,1,8,0.00
2013-5-21,90.7,75.7,62.4,63.3,47.7,30.3,87,46,12,0.00,0.00,15,2,15,0.00
2013-5-22,78.6,70.3,63.0,62.4,54.5,45.1,81,59,32,0.00,0.00,15,2,15,0.24
2013-5-23,74.7,69.4,66.4,62.6,55.8,41.0,83,64,36,0.00,0.00,10,2,10,0.39
2013-5-24,66.6,54.0,42.8,60.9,44.4,28.4,86,71,40,0.00,0.00,17,3,17,0.43
2013-5-25,50.2,46.1,43.0,37.4,27.7,15.0,75,51,27,0.00,0.00,26,5,26,0.16
2013-5-26,59.5,51.4,40.5,32.8,17.0,9.7,72,27,17,0.00,0.00,24,4,24,0.00
2013-5-27,76.3,55.9,37.4,34.6,24.0,13.8,83,38,13,0.00,0.00,21,2,21,0.00
2013-5-28,70.5,55.8,41.2,51.3,34.9,15.8,78,53,14,0.00,0.00,11,1,11,0.04
2013-5-29,83.1,67.5,57.9,60.7,51.0,33.9,88,62,22,0.00,0.00,23,2,23,1.57
2013-5-30,92.1,75.0,59.2,66.5,50.1,30.3,91,53,12,0.00,0.00,11,1,11,0.00
2013-5-31,93.0,78.0,61.9,66.8,46.1,28.1,90,45,12,0.00,0.00,11,1,11,0.00
2013-6-1,91.8,78.4,65.1,60.2,43.2,30.3,77,33,12,0.00,0.00,15,2,15,0.00
2013-6-2,88.7,76.2,69.1,62.6,49.7,37.6,70,42,18,0.00,0.00,24,2,24,0.35
2013-6-3,75.9,67.9,55.9,61.8,43.4,22.6,82,45,20,0.00,0.00,12,2,12,0.08
2013-6-4,72.9,60.3,47.7,32.2,22.0,15.2,53,25,14,0.00,0.00,13,2,13,0.00
2013-6-5,74.5,61.8,45.9,35.8,24.5,17.2,60,27,13,0.00,0.00,8,1,8,0.00
2013-6-6,70.5,60.1,49.6,51.1,36.7,25.6,79,46,19,0.00,0.00,13,2,13,0.08
2013-6-7,60.4,58.4,56.7,53.7,52.2,49.9,85,80,73,0.00,0.00,8,1,8,1.61
2013-6-8,76.5,63.3,55.0,52.3,43.9,31.4,85,55,21,0.00,0.00,11,2,11,0.35
2013-6-9,80.1,66.1,52.7,59.0,40.1,24.4,89,48,15,0.00,0.00,9,1,9,0.00
2013-6-10,67.8,61.6,55.4,60.0,54.3,48.6,84,77,66,0.00,0.00,10,0,10,1.10
2013-6-11,78.4,66.9,61.0,62.8,49.3,33.4,88,58,23,0.00,0.00,22,2,22,0.39
2013-6-12,73.2,65.1,55.4,50.4,30.4,19.2,80,30,14,0.00,0.00,20,4,20,0.00
2013-6-13,58.6,56.0,51.3,54.1,50.0,46.3,87,80,73,0.00,0.00,10,1,10,1.57
2013-6-14,74.3,61.2,52.5,53.9,41.8,19.6,83,56,13,0.00,0.00,12,2,12,0.47
2013-6-15,80.1,64.3,48.4,56.3,34.4,18.8,85,44,12,0.00,0.00,10,1,10,0.00
2013-6-16,74.3,63.8,49.3,55.1,40.1,27.2,86,49,18,0.00,0.00,10,1,10,0.00
2013-6-17,84.9,68.5,55.9,64.7,46.2,22.2,90,55,11,0.00,0.00,16,2,16,0.08
2013-6-18,71.8,62.2,57.9,58.6,48.8,34.7,86,64,35,0.00,0.00,14,2,14,0.28
2013-6-19,73.2,61.9,51.1,44.6,30.0,17.2,72,36,14,0.00,0.00,12,2,12,0.00
2013-6-20,80.6,64.5,45.9,53.4,33.0,20.2,83,40,12,0.00,0.00,9,1,9,0.00
2013-6-21,82.6,71.0,58.1,47.8,39.1,31.8,63,34,19,0.00,0.00,9,1,9,0.00
2013-6-22,85.1,73.2,61.0,46.2,37.0,27.0,54,29,13,0.00,0.00,11,2,11,0.00
2013-6-23,90.1,78.1,66.2,52.3,41.6,30.3,47,30,12,0.00,0.00,11,2,11,0.00
2013-6-24,91.4,76.5,64.6,63.3,51.5,35.3,78,47,15,0.00,0.00,16,1,16,0.00
2013-6-25,90.9,76.5,64.4,65.6,51.8,35.2,89,50,15,0.00,0.00,14,1,14,0.00
2013-6-26,81.9,74.7,68.4,65.3,55.0,39.2,82,54,22,0.00,0.00,9,1,9,0.00
2013-6-27,86.2,74.6,65.1,68.2,53.3,38.1,87,54,19,0.00,0.00,11,2,11,0.20
2013-6-28,84.2,75.5,68.4,65.6,52.4,38.1,83,49,21,0.00,0.00,13,2,13,0.75
2013-6-29,83.7,73.3,65.1,64.6,49.9,27.5,87,52,14,0.00,0.00,11,1,11,0.00
2013-6-30,85.3,72.4,65.1,66.0,57.6,41.0,87,65,23,0.00,0.00,9,1,9,0.87
2013-7-1,78.4,72.2,68.5,74.2,65.4,56.0,90,80,51,0.00,0.00,8,0,8,1.06
2013-7-2,85.3,77.1,72.1,67.8,59.2,47.9,83,58,28,0.00,0.00,8,2,9,0.04
2013-7-3,87.1,77.9,72.5,65.0,56.2,42.3,75,50,22,0.00,0.00,10,2,10,0.00
2013-7-4,90.0,81.2,72.7,67.9,52.5,40.3,80,42,19,0.00,0.00,11,2,11,0.00
2013-7-5,91.8,82.3,73.2,63.7,51.0,39.9,71,37,18,0.00,0.00,9,2,9,0.00
2013-7-6,91.6,81.8,72.9,68.9,52.8,36.7,77,42,15,0.00,0.00,10,1,10,0.00
2013-7-7,91.9,79.1,69.8,72.2,56.8,41.3,87,52,18,0.00,0.00,15,1,15,0.00
2013-7-8,88.5,75.9,68.0,64.6,53.0,34.5,85,51,18,0.00,0.00,11,1,11,0.55
2013-7-9,88.7,75.3,66.0,69.5,56.6,34.9,89,60,18,0.00,0.00,9,1,9,0.00
2013-7-10,83.7,76.7,71.4,68.7,59.1,49.4,80,56,32,0.00,0.00,11,1,11,0.51
2013-7-11,82.4,74.6,66.4,67.2,51.8,35.0,82,50,20,0.00,0.00,9,1,9,0.00
2013-7-12,81.7,72.8,65.5,45.5,39.6,29.6,45,31,17,0.00,0.00,12,2,12,0.00
2013-7-13,78.1,70.2,64.0,63.6,54.8,30.0,77,60,22,0.00,0.00,8,1,8,0.08
2013-7-14,90.3,78.8,70.9,69.9,56.4,39.4,86,53,18,0.00,0.00,8,1,8,0.00
2013-7-15,92.8,80.2,69.8,73.2,52.5,30.3,88,49,12,0.00,0.00,11,1,13,0.00
2013-7-16,92.7,80.3,68.4,65.2,46.1,30.3,77,35,12,0.00,0.00,10,1,10,0.00
2013-7-17,94.1,80.7,68.0,70.4,51.2,30.9,85,46,11,0.00,0.00,7,1,7,0.00
2013-7-18,96.3,82.6,70.9,69.5,52.4,31.4,84,43,11,0.00,0.00,17,1,17,0.00
2013-7-19,95.0,83.6,70.9,72.0,52.0,31.0,87,42,11,0.00,0.00,14,2,14,0.00
2013-7-20,88.9,79.9,68.5,67.9,51.7,38.4,71,40,18,0.00,0.00,9,2,9,0.24
2013-7-21,86.9,74.6,62.8,60.2,45.9,27.6,77,42,13,0.00,0.00,8,1,8,0.00
2013-7-22,84.2,73.3,66.4,68.3,52.7,38.7,85,53,21,0.00,0.00,11,1,11,0.16
2013-7-23,85.3,75.0,71.4,71.1,63.9,42.4,87,71,23,0.00,0.00,13,1,13,1.18
2013-7-24,76.6,70.1,58.8,68.0,46.2,25.6,88,50,18,0.00,0.00,13,2,13,0.00
2013-7-25,72.0,62.9,55.6,42.6,32.8,26.4,45,33,22,0.00,0.00,11,2,11,0.00
2013-7-26,79.5,68.1,61.5,54.7,37.4,24.9,73,35,15,0.00,0.00,11,2,11,0.00
2013-7-27,83.1,70.8,55.9,63.3,43.0,27.0,85,45,14,0.00,0.00,10,1,10,0.00
2013-7-28,77.0,67.8,64.4,67.9,56.9,45.3,84,69,37,0.00,0.00,10,0,10,0.47
2013-7-29,81.7,73.5,65.5,67.6,46.2,22.0,87,49,12,0.00,0.00,10,1,10,0.00
2013-9-20,66.7,61.8,59.4,49.4,42.1,38.1,67,49,37,0.00,0.00,8,1,8,0.00
2013-9-21,72.7,64.5,55.8,60.9,46.3,32.8,81,55,28,0.00,0.00,13,2,13,0.16
2013-9-22,67.1,59.8,52.3,61.1,33.3,13.5,82,44,16,0.00,0.00,13,3,13,0.51
2013-9-23,61.5,51.8,41.2,33.8,20.0,10.7,68,31,16,0.00,0.00,17,3,17,0.00
2013-9-24,69.4,52.8,36.1,39.9,23.6,14.5,74,37,15,0.00,0.00,13,2,13,0.00
2013-9-25,70.9,54.2,38.5,46.4,30.5,17.1,79,47,14,0.00,0.00,9,1,9,0.00
2013-9-26,66.0,56.8,48.0,49.0,31.8,19.6,77,42,18,0.00,0.00,13,2,13,0.00
2013-9-27,65.1,56.0,47.5,43.6,33.9,22.9,74,46,23,0.00,0.00,10,1,10,0.00
2013-9-28,72.9,55.6,43.7,49.1,34.9,18.5,85,54,14,0.00,0.00,8,1,8,0.00
2013-9-29,73.8,55.7,42.4,48.5,36.5,19.6,85,58,13,0.00,0.00,8,1,8,0.00
2013-9-30,74.1,57.1,43.2,51.4,36.2,18.5,85,55,13,0.00,0.00,8,1,8,0.00
2013-10-1,77.5,58.2,42.6,53.2,38.6,20.7,86,57,13,0.00,0.00,8,0,8,0.00
2013-10-2,80.8,62.9,49.6,58.6,42.7,25.3,89,57,14,0.00,0.00,8,1,8,0.00
2013-10-3,76.6,59.5,45.3,53.2,37.7,19.5,83,54,13,0.00,0.00,6,0,6,0.00
2013-10-4,74.5,61.3,53.4,57.8,46.5,34.1,82,62,23,0.00,0.00,8,1,8,0.00
2013-10-5,68.4,61.7,57.9,56.6,50.4,42.4,87,68,41,0.00,0.00,7,1,7,0.04
2013-10-6,61.7,59.0,55.9,58.1,50.6,47.9,89,74,62,0.00,0.00,8,1,8,0.63
2013-10-7,74.8,64.7,53.1,60.4,52.2,37.5,78,65,33,0.00,0.00,26,2,26,0.83
2013-10-8,64.8,53.1,43.0,46.0,28.5,13.8,84,47,15,0.00,0.00,15,2,15,0.00
2013-10-9,63.9,49.7,38.5,40.3,28.8,14.4,81,52,16,0.00,0.00,10,1,10,0.00
2013-10-10,55.9,48.4,39.2,42.8,32.0,26.7,82,56,35,0.00,0.00,8,0,8,0.00
2013-10-11,71.6,56.8,46.0,40.1,30.1,14.8,71,42,14,0.00,0.00,12,1,12,0.00
2013-10-12,72.5,56.6,43.2,42.5,31.9,19.9,79,45,14,0.00,0.00,16,2,16,0.00
2013-10-13,68.2,56.8,44.6,46.0,29.4,17.8,77,39,15,0.00,0.00,10,1,10,0.00
2013-10-14,69.1,54.1,41.0,47.8,32.2,17.6,87,51,15,0.00,0.00,7,1,7,0.00
2013-10-15,71.2,59.9,49.1,49.0,35.8,20.4,73,45,22,0.00,0.00,8,1,8,0.00
2013-10-16,61.3,54.9,45.5,43.2,35.0,24.3,71,48,27,0.00,0.00,8,1,8,0.00
2013-10-17,75.0,64.5,58.5,54.0,39.5,19.4,73,46,13,0.00,0.00,11,2,11,0.00
2013-10-18,66.9,58.6,42.3,55.6,27.8,11.3,76,36,15,0.00,0.00,17,4,17,0.04
2013-10-19,65.8,51.4,37.0,43.2,26.3,14.0,80,45,15,0.00,0.00,15,1,15,0.04
2013-10-20,60.8,50.2,37.0,42.6,25.0,9.7,76,44,16,0.00,0.00,17,2,17,0.00
2013-10-21,39.4,38.7,37.6,30.6,29.6,24.4,72,70,65,0.00,0.00,0,0,0,0.00
2013-10-25,49.5,42.5,33.4,23.8,11.1,4.7,63,30,19,0.00,0.00,10,2,10,0.00
2013-10-26,54.1,43.1,29.3,30.4,14.9,7.7,79,39,18,0.00,0.00,15,3,15,0.00
2013-10-27,55.2,46.2,32.5,18.9,10.3,3.8,56,24,17,0.00,0.00,19,3,19,0.00
2013-10-28,58.3,42.7,28.0,30.1,14.5,2.6,79,39,17,0.00,0.00,12,2,12,0.00
2013-10-29,48.9,38.7,29.1,14.7,5.1,-0.6,52,25,16,0.00,0.00,10,2,10,0.00
2013-10-30,59.2,42.6,29.7,28.9,16.2,8.2,75,37,17,0.00,0.00,8,2,8,0.00
2013-10-31,60.4,49.4,33.8,54.9,44.1,27.2,91,82,64,0.00,0.00,11,2,11,0.31
2013-11-1,70.0,62.2,50.5,53.0,36.0,15.3,77,43,14,0.00,0.00,23,3,23,0.31
2013-11-2,65.7,51.1,39.2,43.7,26.1,14.4,84,44,15,0.00,0.00,15,1,15,0.00
2013-11-3,48.0,38.3,28.4,27.0,8.2,-7.4,44,29,20,0.00,0.00,17,4,17,0.00
2013-11-4,42.3,31.6,25.0,10.4,0.6,-7.4,49,27,18,0.00,0.00,14,2,14,0.00
2013-11-5,54.0,40.8,25.3,21.3,11.3,2.4,53,32,18,0.00,0.00,10,2,10,0.00
2013-11-6,58.5,50.3,37.6,32.5,24.4,15.9,68,38,19,0.00,0.00,14,3,14,0.00
2013-11-7,57.2,49.7,35.1,49.7,31.6,11.2,77,51,29,0.00,0.00,11,2,11,0.24
2013-11-8,45.9,40.5,36.1,24.0,7.5,2.1,61,26,18,0.00,0.00,17,4,17,0.00
2013-11-9,45.7,39.0,28.6,18.0,8.6,3.3,57,30,20,0.00,0.00,8,1,8,0.00
2013-11-10,51.1,45.6,42.3,22.8,10.1,4.5,42,24,19,0.00,0.00,22,3,22,0.00
2013-11-11,49.6,45.6,39.9,12.3,6.9,4.1,28,20,19,0.00,0.00,13,2,13,0.00
2013-11-12,47.8,33.9,24.4,17.3,0.2,-8.1,39,24,19,0.00,0.00,17,3,17,0.00
2013-11-13,37.2,27.2,19.9,4.1,-2.1,-7.6,45,28,19,0.00,0.00,15,2,15,0.00
2013-11-14,55.4,40.4,27.9,12.5,2.8,-3.6,31,21,16,0.00,0.00,12,3,12,0.00
2013-11-15,60.6,42.9,23.9,15.6,5.5,-5.3,45,22,16,0.00,0.00,10,2,10,0.00
2013-11-16,60.4,44.3,32.7,34.5,15.9,2.3,77,36,17,0.00,0.00,10,2,10,0.00
2013-11-17,59.2,51.7,33.3,53.8,44.3,21.9,84,76,61,0.00,0.00,10,2,10,0.04
2013-11-18,62.6,56.5,46.2,53.0,24.0,4.1,76,33,16,0.00,0.00,26,5,26,0.28
2013-11-19,47.1,38.3,28.0,7.2,0.7,-3.4,31,20,18,0.00,0.00,29,5,29,0.00
2013-11-20,38.1,28.9,19.0,6.2,-2.3,-7.4,54,27,19,0.00,0.00,14,2,14,0.00
2013-11-21,46.4,32.3,15.1,18.3,6.9,-1.8,67,37,19,0.00,0.00,10,1,10,0.00
2013-11-22,51.6,46.2,39.7,41.5,31.9,15.1,81,59,34,0.00,0.00,10,1,10,0.12
2013-11-23,47.7,37.4,25.9,36.9,4.7,-8.7,66,26,18,0.00,0.00,18,5,18,0.00
2013-11-24,27.1,22.8,18.0,-3.8,-10.0,-13.1,35,23,21,0.00,0.00,28,6,28,0.00
2013-11-25,34.0,23.6,8.8,0.9,-6.2,-10.6,52,28,20,0.00,0.00,11,2,11,0.00
2013-11-26,34.3,31.7,26.6,28.1,12.5,-5.6,83,49,20,0.00,0.00,8,0,8,0.39
2013-11-27,48.2,37.7,32.7,45.7,28.4,6.2,91,72,30,0.00,0.00,13,2,13,1.38
2013-11-28,34.0,26.9,19.0,7.8,-4.2,-11.1,47,26,20,0.00,0.00,18,4,18,0.00
2013-11-29,33.1,25.7,20.5,5.2,-1.5,-8.8,45,31,20,0.00,0.00,10,2,10,0.00
2013-11-30,32.5,24.6,11.8,3.4,-4.9,-9.4,51,28,20,0.00,0.00,10,2,10,0.00
2013-12-1,43.3,35.0,28.8,16.4,10.2,2.5,52,36,20,0.00,0.00,6,1,6,0.00
2013-12-2,42.6,33.9,26.8,27.6,20.3,15.0,79,58,39,0.00,0.00,6,1,6,0.00
2013-12-3,42.8,31.4,25.5,33.4,22.0,13.6,86,69,40,0.00,0.00,6,1,6,0.00
2013-12-4,46.6,33.1,21.7,24.0,15.2,6.4,75,51,19,0.00,0.00,8,1,8,0.00
2013-12-5,54.3,47.4,38.3,50.5,39.2,18.6,88,74,42,0.00,0.00,12,2,12,0.12
2013-12-6,54.3,41.4,32.2,50.2,27.3,11.5,87,59,29,0.00,0.00,16,3,16,0.35
2013-12-7,37.9,32.0,25.5,24.5,10.0,-7.2,73,44,19,0.00,0.00,15,2,15,0.00
2013-12-8,30.2,25.1,17.1,12.8,3.6,-6.1,65,41,23,0.00,0.00,7,0,7,0.00
2013-12-9,33.3,29.7,25.5,29.5,22.9,6.7,86,76,44,0.00,0.00,8,1,8,0.00
2013-12-10,32.9,28.6,19.9,29.2,24.4,15.1,86,84,81,0.00,0.00,0,0,0,0.00
2013-12-11,27.7,22.1,16.0,16.4,6.6,-1.8,82,53,33,0.00,0.00,9,1,9,0.00
2013-12-12,24.6,15.9,8.2,3.0,-6.7,-14.2,58,38,22,0.00,0.00,10,1,10,0.00
2013-12-13,31.1,22.2,15.3,0.9,-8.3,-12.6,35,25,20,0.00,0.00,18,4,18,0.00
2013-12-14,20.1,13.1,10.2,2.8,-9.3,-12.8,58,36,22,0.00,0.00,10,3,10,0.00
2013-12-15,31.5,24.2,15.1,21.4,11.0,-0.2,72,58,28,0.00,0.00,15,2,15,0.00
2013-12-16,28.8,21.9,4.5,7.4,-9.3,-24.4,42,24,21,0.00,0.00,21,5,21,0.00
2013-12-17,19.2,9.8,-3.1,7.8,-11.0,-30.9,61,40,24,0.00,0.00,5,0,5,0.00
2013-12-18,33.6,21.6,4.8,9.3,1.8,-7.8,57,43,25,0.00,0.00,8,1,8,0.00
2013-12-19,43.3,33.2,26.1,15.0,3.7,-1.0,52,29,18,0.00,0.00,13,2,13,0.08
2013-12-20,49.8,40.1,28.9,17.3,10.2,5.0,56,32,19,0.00,0.00,10,3,10,0.08
2013-12-21,57.4,48.4,38.5,40.8,17.8,5.6,83,32,19,0.00,0.00,11,4,11,0.00
2013-12-22,64.9,57.3,39.6,58.4,42.6,29.7,90,62,35,0.00,0.00,15,3,15,0.00
2013-12-23,59.4,44.7,35.1,45.6,31.7,4.5,81,62,27,0.00,0.00,14,2,14,0.35
2013-12-24,35.4,29.2,20.8,10.1,-0.7,-12.0,37,27,20,0.00,0.00,15,4,15,0.00
2013-12-25,23.0,18.3,13.1,-5.9,-12.9,-16.9,36,24,22,0.00,0.00,13,3,13,0.00
2013-12-26,31.1,25.7,18.1,14.2,2.9,-12.5,58,38,25,0.00,0.00,10,3,10,0.00
2013-12-27,36.9,27.4,19.4,16.3,5.8,-1.9,72,42,22,0.00,0.00,12,2,12,0.00
2013-12-28,49.1,33.8,21.9,16.6,8.1,0.7,66,37,17,0.00,0.00,15,4,15,0.00
2013-12-29,44.6,35.3,26.2,32.1,21.6,4.5,81,61,20,0.00,0.00,13,3,13,0.91
2013-12-30,36.3,27.5,14.2,32.4,6.6,-14.8,86,46,20,0.00,0.00,17,2,17,0.00
2013-12-31,25.9,18.4,10.4,8.3,-7.0,-13.6,59,32,21,0.00,0.00,17,2,17,0.00
2014-1-1,30.0,22.5,15.4,4.8,-6.8,-13.1,52,28,20,0.00,0.00,11,2,11,0.00
2014-1-2,19.4,8.0,0.5,4.3,-7.2,-14.6,53,49,48,0.00,0.00,15,4,15,0.00